createdAt,value
2022-10-26T00:00:06.679Z,14.50
2022-10-26T00:02:52.890Z,15.33
2022-10-26T00:05:39.075Z,14.21
2022-10-26T00:08:24.886Z,13.12
2022-10-26T00:11:10.841Z,12.13
2022-10-26T00:13:56.786Z,12.05
2022-10-26T00:16:42.603Z,12.08
2022-10-26T00:19:28.497Z,12.02
2022-10-26T00:22:14.482Z,11.18
2022-10-26T00:25:00.543Z,11.66
2022-10-26T00:27:46.606Z,11.67
2022-10-26T00:30:32.789Z,11.42
2022-10-26T00:33:18.816Z,11.19
2022-10-26T00:36:04.826Z,11.47
2022-10-26T00:38:50.791Z,12.19
2022-10-26T00:41:36.753Z,12.97
2022-10-26T00:44:22.513Z,13.59
2022-10-26T00:47:08.309Z,13.90
2022-10-26T00:49:54.237Z,13.15
2022-10-26T00:52:39.888Z,13.11
2022-10-26T00:55:25.844Z,12.75
2022-10-26T00:58:11.581Z,13.22
2022-10-26T01:00:57.494Z,13.78
2022-10-26T01:03:43.298Z,14.41
2022-10-26T01:06:29.258Z,14.67
2022-10-26T01:09:15.010Z,14.74
2022-10-26T01:12:01.066Z,14.52
2022-10-26T01:14:46.884Z,14.56
2022-10-26T01:17:32.852Z,14.32
2022-10-26T01:20:18.651Z,14.47
2022-10-26T01:23:04.539Z,14.80
2022-10-26T01:25:50.405Z,15.32
2022-10-26T01:28:36.216Z,15.56
2022-10-26T01:31:22.003Z,15.45
2022-10-26T01:34:07.879Z,15.95
2022-10-26T01:36:53.784Z,15.89
2022-10-26T01:39:41.588Z,15.89
2022-10-26T01:42:27.534Z,15.69
2022-10-26T01:45:13.321Z,15.52
2022-10-26T01:47:59.217Z,15.10
2022-10-26T01:50:45.132Z,15.23
2022-10-26T01:53:31.065Z,15.81
2022-10-26T01:56:17.008Z,15.97
2022-10-26T01:59:02.803Z,16.12
2022-10-26T02:01:48.833Z,15.99
2022-10-26T02:04:35.069Z,16.13
2022-10-26T02:07:21.003Z,16.19
2022-10-26T02:10:06.948Z,15.70
2022-10-26T02:12:52.797Z,14.46
2022-10-26T02:15:38.735Z,14.96
2022-10-26T02:18:24.605Z,15.53
2022-10-26T02:21:10.507Z,15.94
2022-10-26T02:23:56.562Z,15.09
2022-10-26T02:26:42.279Z,15.44
2022-10-26T02:29:28.071Z,15.33
2022-10-26T02:32:13.950Z,15.30
2022-10-26T02:34:59.767Z,16.07
2022-10-26T02:37:45.670Z,16.08
2022-10-26T02:40:31.629Z,16.01
2022-10-26T02:43:17.526Z,16.28
2022-10-26T02:46:03.361Z,16.39
2022-10-26T02:48:49.065Z,15.76
2022-10-26T02:51:35.002Z,15.99
2022-10-26T02:54:21.032Z,15.64
2022-10-26T02:57:06.940Z,15.60
2022-10-26T02:59:52.666Z,15.06
2022-10-26T03:02:38.590Z,15.35
2022-10-26T03:05:24.493Z,15.41
2022-10-26T03:08:10.475Z,15.95
2022-10-26T03:10:56.322Z,15.90
2022-10-26T03:13:42.239Z,16.04
2022-10-26T03:16:28.093Z,16.13
2022-10-26T03:19:13.923Z,13.95
2022-10-26T03:21:59.848Z,13.92
2022-10-26T03:24:47.686Z,13.29
2022-10-26T03:27:33.579Z,13.56
2022-10-26T03:30:19.538Z,13.38
2022-10-26T03:33:05.337Z,12.26
2022-10-26T03:35:51.155Z,12.97
2022-10-26T03:38:37.141Z,12.96
2022-10-26T03:41:23.041Z,12.52
2022-10-26T03:44:08.925Z,13.78
2022-10-26T03:46:54.701Z,14.00
2022-10-26T03:49:40.569Z,14.00
2022-10-26T03:52:26.500Z,14.58
2022-10-26T03:55:12.358Z,14.81
2022-10-26T03:57:58.448Z,15.25
2022-10-26T04:00:44.393Z,15.57
2022-10-26T04:03:30.238Z,15.69
2022-10-26T04:06:16.295Z,15.96
2022-10-26T04:09:01.981Z,16.25
2022-10-26T04:11:47.894Z,16.10
2022-10-26T04:14:53.662Z,16.17
2022-10-26T04:17:39.500Z,15.90
2022-10-26T04:20:25.243Z,16.30
2022-10-26T04:23:13.276Z,15.06
2022-10-26T04:25:59.200Z,15.18
2022-10-26T04:28:45.024Z,15.05
2022-10-26T04:31:30.947Z,14.95
2022-10-26T04:34:16.766Z,15.52
2022-10-26T04:37:02.699Z,16.10
2022-10-26T04:39:48.734Z,16.17
2022-10-26T04:42:34.581Z,16.24
2022-10-26T04:45:20.466Z,14.77
2022-10-26T04:48:06.338Z,14.94
2022-10-26T04:50:52.243Z,14.46
2022-10-26T04:53:38.207Z,15.09
2022-10-26T04:56:23.932Z,15.23
2022-10-26T04:59:09.796Z,15.41
2022-10-26T05:01:55.763Z,15.57
2022-10-26T05:04:42.029Z,15.78
2022-10-26T05:07:28.118Z,15.89
2022-10-26T05:10:13.956Z,16.36
2022-10-26T05:12:59.894Z,16.57
2022-10-26T05:15:45.877Z,16.43
2022-10-26T05:18:31.563Z,15.95
2022-10-26T05:21:17.429Z,15.56
2022-10-26T05:24:03.321Z,15.70
2022-10-26T05:26:49.174Z,14.87
2022-10-26T05:29:35.051Z,15.04
2022-10-26T05:32:20.830Z,14.90
2022-10-26T05:35:06.763Z,14.99
2022-10-26T05:37:52.597Z,14.60
2022-10-26T05:40:38.401Z,14.66
2022-10-26T05:43:24.229Z,14.40
2022-10-26T05:46:09.927Z,14.55
2022-10-26T05:48:55.829Z,14.14
2022-10-26T05:51:41.795Z,14.68
2022-10-26T05:54:27.677Z,14.65
2022-10-26T05:57:13.516Z,14.92
2022-10-26T06:00:01.349Z,14.59
2022-10-26T06:02:47.208Z,14.41
2022-10-26T06:05:33.222Z,14.03
2022-10-26T06:08:19.037Z,13.84
2022-10-26T06:11:04.941Z,14.20
2022-10-26T06:13:50.914Z,14.46
2022-10-26T06:16:36.735Z,14.33
2022-10-26T06:19:22.729Z,14.60
2022-10-26T06:22:08.742Z,14.62
2022-10-26T06:24:55.867Z,14.87
2022-10-26T06:27:42.045Z,14.66
2022-10-26T06:30:27.915Z,14.78
2022-10-26T06:33:24.577Z,14.54
2022-10-26T06:36:14.319Z,14.59
2022-10-26T06:39:00.189Z,14.75
2022-10-26T06:41:45.895Z,14.99
2022-10-26T06:44:31.797Z,14.82
2022-10-26T06:47:21.161Z,15.12
2022-10-26T06:50:09.552Z,15.04
2022-10-26T06:52:55.453Z,14.86
2022-10-26T06:55:43.421Z,14.82
2022-10-26T06:58:29.212Z,15.18
2022-10-26T07:01:15.133Z,15.18
2022-10-26T07:04:00.805Z,15.46
2022-10-26T07:06:46.715Z,15.54
2022-10-26T07:09:32.620Z,15.49
2022-10-26T07:12:18.350Z,15.31
2022-10-26T07:15:04.217Z,15.32
2022-10-26T07:17:50.511Z,15.71
2022-10-26T07:20:36.598Z,15.78
2022-10-26T07:23:22.585Z,15.78
2022-10-26T07:26:08.497Z,15.51
2022-10-26T07:28:54.447Z,15.31
2022-10-26T07:31:40.362Z,15.72
2022-10-26T07:34:28.289Z,15.51
2022-10-26T07:37:14.168Z,15.47
2022-10-26T07:40:05.774Z,15.75
2022-10-26T07:42:53.655Z,15.82
2022-10-26T07:45:40.023Z,15.61
2022-10-26T07:48:25.946Z,15.67
2022-10-26T07:51:12.005Z,15.60
2022-10-26T07:53:57.916Z,15.69
2022-10-26T07:56:43.775Z,15.64
2022-10-26T07:59:29.488Z,15.75
2022-10-26T08:02:15.329Z,15.44
2022-10-26T08:05:01.202Z,15.69
2022-10-26T08:07:47.132Z,15.37
2022-10-26T08:10:33.370Z,15.69
2022-10-26T08:13:19.329Z,15.52
2022-10-26T08:16:07.203Z,15.30
2022-10-26T08:18:53.122Z,15.48
2022-10-26T08:21:40.718Z,15.47
2022-10-26T08:24:26.844Z,15.44
2022-10-26T08:27:12.727Z,15.71
2022-10-26T08:29:58.561Z,15.86
2022-10-26T08:32:44.531Z,15.60
2022-10-26T08:35:30.507Z,15.58
2022-10-26T08:38:16.318Z,15.84
2022-10-26T08:41:02.217Z,15.43
2022-10-26T08:43:48.198Z,15.79
2022-10-26T08:46:34.207Z,15.87
2022-10-26T08:49:20.202Z,16.17
2022-10-26T08:52:06.031Z,16.62
2022-10-26T08:54:51.774Z,16.33
2022-10-26T08:57:37.891Z,16.40
2022-10-26T09:00:23.814Z,16.89
2022-10-26T09:03:09.691Z,16.78
2022-10-26T09:05:55.640Z,16.92
2022-10-26T09:08:41.417Z,17.05
2022-10-26T09:11:27.614Z,17.02
2022-10-26T09:14:13.547Z,17.10
2022-10-26T09:16:59.500Z,17.25
2022-10-26T09:19:45.526Z,17.36
2022-10-26T09:22:31.356Z,17.27
2022-10-26T09:25:17.403Z,17.70
2022-10-26T09:28:03.347Z,17.54
2022-10-26T09:30:49.119Z,17.34
2022-10-26T09:33:35.186Z,17.40
2022-10-26T09:36:20.954Z,17.66
2022-10-26T09:39:06.689Z,17.55
2022-10-26T09:41:52.644Z,17.23
2022-10-26T09:44:38.489Z,17.27
2022-10-26T09:47:24.278Z,17.33
2022-10-26T09:50:10.174Z,17.23
2022-10-26T09:52:56.044Z,17.43
2022-10-26T09:55:41.935Z,17.52
2022-10-26T09:58:27.720Z,17.57
2022-10-26T10:01:13.672Z,17.10
2022-10-26T10:03:59.697Z,17.42
2022-10-26T10:06:45.460Z,17.32
2022-10-26T10:09:31.482Z,17.67
2022-10-26T10:12:17.403Z,17.74
2022-10-26T10:15:03.251Z,17.53
2022-10-26T10:17:52.208Z,17.64
2022-10-26T10:20:38.964Z,17.42
2022-10-26T10:23:26.961Z,17.82
2022-10-26T10:26:12.845Z,17.68
2022-10-26T10:28:58.667Z,17.97
2022-10-26T10:31:44.671Z,17.84
2022-10-26T10:34:30.631Z,17.98
2022-10-26T10:37:16.396Z,18.30
2022-10-26T10:40:02.423Z,18.75
2022-10-26T10:42:48.755Z,19.11
2022-10-26T10:45:34.785Z,19.18
2022-10-26T10:48:20.791Z,19.03
2022-10-26T10:51:06.625Z,19.48
2022-10-26T10:53:52.504Z,19.12
2022-10-26T10:56:38.483Z,19.37
2022-10-26T10:59:24.233Z,19.29
2022-10-26T11:02:10.205Z,19.41
2022-10-26T11:04:56.462Z,19.17
2022-10-26T11:07:42.280Z,19.32
2022-10-26T11:10:28.195Z,19.00
2022-10-26T11:13:14.067Z,19.44
2022-10-26T11:15:59.956Z,19.71
2022-10-26T11:18:45.872Z,19.86
2022-10-26T11:21:31.606Z,19.92
2022-10-26T11:24:17.350Z,19.92
2022-10-26T11:27:03.281Z,19.63
2022-10-26T11:29:49.122Z,19.53
2022-10-26T11:32:34.935Z,19.57
2022-10-26T11:35:20.830Z,19.95
2022-10-26T11:38:06.592Z,19.91
2022-10-26T11:40:52.700Z,19.75
2022-10-26T11:43:38.512Z,20.02
2022-10-26T11:46:24.342Z,20.03
2022-10-26T11:49:10.226Z,20.17
2022-10-26T11:51:56.186Z,19.95
2022-10-26T11:54:43.935Z,19.93
2022-10-26T11:57:29.619Z,19.90
2022-10-26T12:00:15.429Z,19.77
2022-10-26T12:03:01.541Z,20.09
2022-10-26T12:05:47.744Z,19.90
2022-10-26T12:08:33.931Z,20.36
2022-10-26T12:11:19.951Z,20.19
2022-10-26T12:14:05.757Z,21.05
2022-10-26T12:16:51.702Z,20.97
2022-10-26T12:19:37.402Z,20.58
2022-10-26T12:22:23.486Z,21.00
2022-10-26T12:25:14.684Z,21.03
2022-10-26T12:28:01.336Z,21.21
2022-10-26T12:30:47.232Z,21.40
2022-10-26T12:33:32.966Z,21.26
2022-10-26T12:36:18.901Z,21.16
2022-10-26T12:39:04.619Z,21.04
2022-10-26T12:41:50.545Z,20.33
2022-10-26T12:44:36.305Z,20.70
2022-10-26T12:47:22.133Z,20.70
2022-10-26T12:50:07.932Z,20.61
2022-10-26T12:52:54.212Z,19.68
2022-10-26T12:55:40.832Z,20.03
2022-10-26T12:58:26.631Z,20.08
2022-10-26T13:01:12.553Z,20.19
2022-10-26T13:03:58.498Z,20.36
2022-10-26T13:06:44.388Z,20.60
2022-10-26T13:09:30.426Z,20.74
2022-10-26T13:12:16.305Z,20.65
2022-10-26T13:15:02.121Z,20.62
2022-10-26T13:17:48.032Z,20.59
2022-10-26T13:20:33.905Z,20.83
2022-10-26T13:23:19.662Z,20.63
2022-10-26T13:26:05.721Z,20.72
2022-10-26T13:28:51.504Z,21.16
2022-10-26T13:31:39.354Z,21.42
2022-10-26T13:34:25.211Z,21.93
2022-10-26T13:37:10.982Z,21.83
2022-10-26T13:39:57.018Z,22.27
2022-10-26T13:42:42.879Z,22.42
2022-10-26T13:45:28.726Z,22.10
2022-10-26T13:48:14.677Z,22.61
2022-10-26T13:51:00.467Z,22.63
2022-10-26T13:53:46.487Z,23.08
2022-10-26T13:56:32.346Z,23.50
2022-10-26T14:02:05.405Z,23.50
2022-10-26T14:04:51.176Z,23.89
2022-10-26T14:07:37.007Z,23.36
2022-10-26T14:10:22.875Z,23.13
2022-10-26T14:13:08.540Z,23.60
2022-10-26T14:15:54.476Z,23.64
2022-10-26T14:18:40.396Z,23.17
2022-10-26T14:21:26.342Z,23.45
2022-10-26T14:24:12.283Z,23.01
2022-10-26T14:26:58.109Z,23.31
2022-10-26T14:29:46.887Z,22.96
2022-10-26T14:32:36.142Z,23.07
2022-10-26T14:35:22.023Z,23.74
2022-10-26T14:38:08.019Z,23.38
2022-10-26T14:40:53.855Z,23.52
2022-10-26T14:43:40.084Z,23.21
2022-10-26T14:46:25.932Z,23.60
2022-10-26T14:49:11.759Z,23.33
2022-10-26T14:51:57.590Z,23.49
2022-10-26T14:54:43.584Z,23.81
2022-10-26T14:57:29.577Z,23.95
2022-10-26T15:00:15.313Z,24.18
2022-10-26T15:03:01.180Z,24.38
2022-10-26T15:05:47.176Z,24.30
2022-10-26T15:08:45.241Z,24.55
2022-10-26T15:11:39.257Z,24.71
2022-10-26T15:14:25.065Z,24.76
2022-10-26T15:17:10.848Z,24.69
2022-10-26T15:19:56.789Z,24.67
2022-10-26T15:22:42.553Z,24.37
2022-10-26T15:25:28.466Z,23.70
2022-10-26T15:28:14.321Z,21.95
2022-10-26T15:31:01.283Z,21.47
2022-10-26T15:33:47.358Z,21.32
2022-10-26T15:36:33.139Z,20.93
2022-10-26T15:39:19.055Z,20.49
2022-10-26T15:42:04.969Z,20.67
2022-10-26T15:44:50.863Z,20.58
2022-10-26T15:47:36.707Z,20.39
2022-10-26T15:50:22.726Z,19.85
2022-10-26T15:53:08.544Z,19.47
2022-10-26T15:55:54.384Z,19.14
2022-10-26T15:58:42.383Z,18.96
2022-10-26T16:01:28.291Z,18.55
2022-10-26T16:04:14.583Z,18.72
2022-10-26T16:07:00.496Z,18.39
2022-10-26T16:09:46.492Z,18.46
2022-10-26T16:12:32.399Z,18.27
2022-10-26T16:15:18.110Z,17.78
2022-10-26T16:18:03.928Z,17.37
2022-10-26T16:20:49.847Z,16.97
2022-10-26T16:23:35.635Z,16.85
2022-10-26T16:26:21.548Z,16.66
2022-10-26T16:29:07.463Z,16.44
2022-10-26T16:31:53.292Z,16.19
2022-10-26T16:34:39.166Z,16.34
2022-10-26T16:37:24.971Z,16.39
2022-10-26T16:40:10.802Z,16.23
2022-10-26T16:42:56.833Z,15.38
2022-10-26T16:45:42.598Z,15.06
2022-10-26T16:48:30.202Z,15.49
2022-10-26T16:51:16.165Z,16.07
2022-10-26T16:54:02.103Z,16.03
2022-10-26T16:56:48.143Z,15.99
2022-10-26T16:59:33.991Z,15.45
2022-10-26T17:02:19.917Z,14.97
2022-10-26T17:05:07.609Z,14.81
2022-10-26T17:07:53.669Z,14.75
2022-10-26T17:10:39.837Z,15.47
2022-10-26T17:13:25.752Z,14.75
2022-10-26T17:16:11.568Z,15.12
2022-10-26T17:18:57.573Z,15.98
2022-10-26T17:21:43.500Z,16.15
2022-10-26T17:24:29.291Z,14.98
2022-10-26T17:27:15.138Z,14.52
2022-10-26T17:30:01.583Z,14.29
2022-10-26T17:32:47.641Z,14.24
2022-10-26T17:35:34.183Z,14.17
2022-10-26T17:38:20.017Z,14.36
2022-10-26T17:41:06.011Z,14.29
2022-10-26T17:43:51.919Z,14.24
2022-10-26T17:46:37.844Z,14.19
2022-10-26T17:49:26.812Z,14.10
2022-10-26T17:52:14.395Z,13.86
2022-10-26T17:55:01.896Z,13.83
2022-10-26T17:57:49.374Z,14.11
2022-10-26T18:00:35.311Z,14.04
2022-10-26T18:03:21.148Z,14.09
2022-10-26T18:06:06.998Z,14.15
2022-10-26T18:08:53.872Z,14.19
2022-10-26T18:11:40.233Z,14.08
2022-10-26T18:14:26.078Z,13.79
2022-10-26T18:17:11.995Z,13.43
2022-10-26T18:19:59.835Z,13.21
2022-10-26T18:22:45.759Z,13.28
2022-10-26T18:25:31.830Z,13.45
2022-10-26T18:28:17.636Z,13.44
2022-10-26T18:31:03.604Z,13.29
2022-10-26T18:33:49.271Z,13.49
2022-10-26T18:36:35.119Z,13.59
2022-10-26T18:39:21.079Z,13.61
2022-10-26T18:42:06.857Z,13.67
2022-10-26T18:44:52.852Z,13.72
2022-10-26T18:47:38.724Z,13.61
2022-10-26T18:50:24.537Z,13.78
2022-10-26T18:53:10.455Z,13.84
2022-10-26T18:55:56.336Z,13.55
2022-10-26T18:58:44.284Z,13.32
2022-10-26T19:01:30.467Z,13.20
2022-10-26T19:04:16.825Z,13.15
2022-10-26T19:07:02.787Z,13.24
2022-10-26T19:09:48.755Z,13.16
2022-10-26T19:12:34.555Z,13.22
2022-10-26T19:15:20.435Z,13.21
2022-10-26T19:18:06.291Z,13.04
2022-10-26T19:20:52.166Z,12.80
2022-10-26T19:23:38.031Z,12.74
2022-10-26T19:26:23.745Z,12.58
2022-10-26T19:29:09.707Z,12.54
2022-10-26T19:31:55.465Z,12.58
2022-10-26T19:34:41.296Z,12.76
2022-10-26T19:37:28.509Z,12.93
2022-10-26T19:40:14.546Z,12.80
2022-10-26T19:43:00.366Z,13.04
2022-10-26T19:45:46.362Z,13.08
2022-10-26T19:48:32.164Z,13.52
2022-10-26T19:51:18.073Z,13.10
2022-10-26T19:54:04.396Z,13.17
2022-10-26T19:56:50.351Z,13.49
2022-10-26T19:59:36.159Z,13.34
2022-10-26T20:02:22.125Z,13.31
2022-10-26T20:05:08.084Z,13.25
2022-10-26T20:07:53.950Z,13.32
2022-10-26T20:10:39.873Z,13.29
2022-10-26T20:13:25.804Z,13.29
2022-10-26T20:16:11.722Z,13.36
2022-10-26T20:18:57.551Z,13.40
2022-10-26T20:21:43.440Z,13.32
2022-10-26T20:24:29.279Z,13.33
2022-10-26T20:27:15.169Z,13.19
2022-10-26T20:30:03.170Z,13.20
2022-10-26T20:32:48.923Z,13.49
2022-10-26T20:35:34.796Z,13.56
2022-10-26T20:38:20.733Z,13.47
2022-10-26T20:41:09.975Z,13.65
2022-10-26T20:43:57.981Z,13.27
2022-10-26T20:46:43.994Z,13.37
2022-10-26T20:49:29.974Z,13.81
2022-10-26T20:52:20.686Z,13.54
2022-10-26T20:55:07.837Z,13.56
2022-10-26T20:57:53.737Z,13.42
2022-10-26T21:00:39.498Z,13.52
2022-10-26T21:03:25.493Z,13.79
2022-10-26T21:06:11.388Z,13.85
2022-10-26T21:08:57.342Z,13.65
2022-10-26T21:11:43.229Z,13.73
2022-10-26T21:14:29.163Z,13.92
2022-10-26T21:17:15.089Z,13.79
2022-10-26T21:20:01.109Z,13.76
2022-10-26T21:22:46.853Z,13.63
2022-10-26T21:25:32.744Z,13.68
2022-10-26T21:28:18.602Z,13.34
2022-10-26T21:31:04.503Z,13.49
2022-10-26T21:33:52.393Z,13.69
2022-10-26T21:36:38.028Z,14.12
2022-10-26T21:39:23.894Z,13.97
2022-10-26T21:42:09.704Z,14.39
2022-10-26T21:44:55.584Z,14.37
2022-10-26T21:47:41.591Z,14.31
2022-10-26T21:50:27.542Z,14.57
2022-10-26T21:53:13.423Z,14.69
2022-10-26T21:55:59.297Z,15.05
2022-10-26T21:58:45.130Z,15.17
2022-10-26T22:01:31.099Z,15.03
2022-10-26T22:04:17.108Z,14.80
2022-10-26T22:07:02.830Z,15.06
2022-10-26T22:10:07.469Z,14.53
2022-10-26T22:12:54.969Z,14.48
2022-10-26T22:15:40.680Z,14.34
2022-10-26T22:18:26.694Z,14.35
2022-10-26T22:21:12.561Z,13.92
2022-10-26T22:23:58.396Z,14.02
2022-10-26T22:26:44.322Z,14.58
2022-10-26T22:29:30.246Z,15.04
2022-10-26T22:32:16.057Z,15.00
2022-10-26T22:35:11.235Z,14.72
2022-10-26T22:38:08.142Z,14.71
2022-10-26T22:40:53.829Z,14.48
2022-10-26T22:43:39.783Z,15.12
2022-10-26T22:46:25.672Z,15.21
2022-10-26T22:49:11.429Z,15.80
2022-10-26T22:51:57.509Z,16.25
2022-10-26T22:54:43.253Z,16.73
2022-10-26T22:57:29.230Z,16.59
2022-10-26T23:00:15.281Z,16.90
2022-10-26T23:03:01.140Z,17.39
2022-10-26T23:05:47.017Z,17.61
2022-10-26T23:08:32.846Z,15.99
2022-10-26T23:11:18.741Z,15.14
2022-10-26T23:14:04.835Z,15.80
2022-10-26T23:16:52.571Z,16.16
2022-10-26T23:19:38.440Z,15.97
2022-10-26T23:22:24.284Z,16.51
2022-10-26T23:25:10.216Z,16.96
2022-10-26T23:27:56.111Z,16.49
2022-10-26T23:30:41.944Z,16.47
2022-10-26T23:33:27.769Z,15.75
2022-10-26T23:36:13.665Z,14.97
2022-10-26T23:38:59.502Z,14.43
2022-10-26T23:41:45.357Z,14.45
2022-10-26T23:44:31.166Z,14.87
2022-10-26T23:47:16.985Z,15.09
2022-10-26T23:50:02.821Z,15.41
2022-10-26T23:52:48.656Z,16.04
2022-10-26T23:55:34.569Z,15.94
2022-10-26T23:58:20.523Z,15.26
